^^
Grace C. Lehan Memorial Weather Station Historical Data
Daily Summary for June 16, 2022 Units:  English    Metric   Both
Daily Weekly Monthly Yearly
  High: Low: Average:
Temperature: 74.6 °F 49.1 °F 62.7 °F
Dew Point: 54.9 °F 45.7 °F 49.7 °F
Humidity: 90% 44.7% 65%
Wind Speed: 3.5mph 0mph 0.7mph
Wind Gust: 14mph - -
Wind- - WNW
Pressure: 30.17 in 30.07 in -
Precipitation: 0.00 in    
 
 
Tabular Data for June 16, 2022
Time Temperature Dew Point Pressure Wind Wind Speed Wind Gust Humidity Rainfall Rate (Hourly) solar
00:09 58.1 °F 46.8 °F 30.15 in Calm     66% 0.00 in 0 W/m2
00:14 57.9 °F 46.9 °F 30.15 in Calm     66.8% 0.00 in 0 W/m2
00:19 57.7 °F 47.1 °F 30.15 in Calm     67.6% 0.00 in 0 W/m2
00:24 57.5 °F 47 °F 30.15 in Calm     68% 0.00 in 0 W/m2
00:29 57.2 °F 46.8 °F 30.15 in Calm     68% 0.00 in 0 W/m2
00:34 57 °F 46.8 °F 30.15 in Calm     68.5% 0.00 in 0 W/m2
00:39 56.8 °F 46.9 °F 30.15 in Calm     69.6% 0.00 in 0 W/m2
00:44 56.5 °F 46.9 °F 30.15 in Calm     70.1% 0.00 in 0 W/m2
00:49 56.2 °F 46.9 °F 30.15 in Calm     71% 0.00 in 0 W/m2
00:54 56 °F 47.1 °F 30.15 in Calm     72% 0.00 in 0 W/m2
00:59 55.7 °F 47.2 °F 30.15 in Calm     73% 0.00 in 0 W/m2
01:04 55.5 °F 47.1 °F 30.15 in Calm     73.3% 0.00 in 0 W/m2
01:09 55.3 °F 47.1 °F 30.15 in Calm     74% 0.00 in 0 W/m2
01:14 55 °F 47 °F 30.15 in Calm     74.3% 0.00 in 0 W/m2
01:19 54.8 °F 47.1 °F 30.15 in Calm     75% 0.00 in 0 W/m2
01:24 54.6 °F 47.1 °F 30.15 in Calm     75.8% 0.00 in 0 W/m2
01:29 54.4 °F 47.3 °F 30.15 in Calm     77% 0.00 in 0 W/m2
01:34 54.2 °F 47.3 °F 30.15 in Calm     77.6% 0.00 in 0 W/m2
01:39 54 °F 47.4 °F 30.15 in Calm     78.4% 0.00 in 0 W/m2
01:40 53.9 °F 47.6 °F 30.15 in Calm     79% 0.00 in 0 W/m2
02:00 53.2 °F 47.2 °F 30.14 in Calm     80% 0.00 in 0 W/m2
02:30 52.5 °F 47.5 °F 30.14 in Calm     83% 0.00 in 0 W/m2
03:00 51.7 °F 47 °F 30.13 in Calm     84% 0.00 in 0 W/m2
03:30 51 °F 46.7 °F 30.14 in Calm     85% 0.00 in 0 W/m2
04:04 50.6 °F 46.6 °F 30.13 in Calm     86% 0.00 in 0 W/m2
04:09 50.6 °F 46.4 °F 30.13 in Calm     85.5% 0.00 in 0 W/m2
04:14 50.6 °F 46.3 °F 30.13 in Calm     85% 0.00 in 0 W/m2
04:19 50.6 °F 46.3 °F 30.13 in Calm     85% 0.00 in 0 W/m2
04:24 50.6 °F 46.3 °F 30.13 in Calm     85% 0.00 in 0 W/m2
04:29 50.7 °F 46.4 °F 30.13 in Calm     85% 0.00 in 0 W/m2
04:34 50.6 °F 46.3 °F 30.14 in Calm   1 mph 85% 0.00 in 0 W/m2
04:39 50.6 °F 46.3 °F 30.14 in Calm   1 mph 85% 0.00 in 0 W/m2
04:44 50.6 °F 46.3 °F 30.14 in Calm   1 mph 85% 0.00 in 0 W/m2
04:49 50.6 °F 46.3 °F 30.14 in Calm   1 mph 85% 0.00 in 0 W/m2
04:54 50.5 °F 46.2 °F 30.14 in Calm   1 mph 85% 0.00 in 0 W/m2
04:59 50.5 °F 46.2 °F 30.14 in Calm   1 mph 85% 0.00 in 0 W/m2
05:04 50.5 °F 46.1 °F 30.14 in Calm   1 mph 85% 0.00 in 0 W/m2
05:09 50.4 °F 46 °F 30.14 in Calm     85% 0.00 in 0 W/m2
05:14 50.3 °F 45.8 °F 30.14 in Calm   1 mph 84.4% 0.00 in 0 W/m2
05:19 50.3 °F 46 °F 30.14 in Calm   2 mph 85% 0.00 in 0 W/m2
05:24 50.3 °F 46 °F 30.14 in Calm   2 mph 85% 0.00 in 0 W/m2
05:29 50.4 °F 46.1 °F 30.14 in Calm   2 mph 85% 0.00 in 0 W/m2
05:34 50.5 °F 46 °F 30.14 in Calm   2 mph 84.8% 0.00 in 0 W/m2
05:39 50.5 °F 45.9 °F 30.14 in Calm   1 mph 84% 0.00 in 0 W/m2
05:44 50.6 °F 46 °F 30.14 in Calm   1 mph 84.1% 0.00 in 0 W/m2
05:49 50.6 °F 46.1 °F 30.14 in Calm   1 mph 84.4% 0.00 in 0 W/m2
05:54 50.5 °F 46.1 °F 30.14 in Calm   1 mph 85% 0.00 in 0 W/m2
05:59 50.3 °F 46 °F 30.14 in Calm   1 mph 85% 0.00 in 0 W/m2
06:04 50.2 °F 45.8 °F 30.14 in Calm   1 mph 85% 0.00 in 0 W/m2
06:09 50.1 °F 46 °F 30.14 in Calm     85.9% 0.00 in 0 W/m2
06:14 50 °F 46 °F 30.14 in Calm     86% 0.00 in 0 W/m2
06:19 49.9 °F 45.9 °F 30.14 in Calm     86% 0.00 in 0 W/m2
06:24 49.8 °F 46.1 °F 30.15 in Calm     87% 0.00 in 0 W/m2
06:29 49.7 °F 46 °F 30.15 in Calm     87% 0.00 in 0 W/m2
06:34 49.6 °F 45.9 °F 30.15 in Calm     87% 0.00 in 0 W/m2
06:39 49.4 °F 45.7 °F 30.15 in Calm     87% 0.00 in 7 W/m2
06:44 49.4 °F 45.7 °F 30.15 in Calm     87% 0.00 in 11 W/m2
06:49 49.3 °F 45.7 °F 30.15 in Calm     87.5% 0.00 in 16 W/m2
06:54 49.2 °F 45.7 °F 30.15 in Calm     87.8% 0.00 in 19 W/m2
06:59 49.1 °F 45.7 °F 30.15 in Calm     88% 0.00 in 25 W/m2
07:04 49.1 °F 45.7 °F 30.15 in Calm     88% 0.00 in 28 W/m2
07:09 49.1 °F 45.7 °F 30.15 in Calm     88% 0.00 in 33 W/m2
07:14 49.1 °F 45.7 °F 30.15 in Calm     88.1% 0.00 in 37 W/m2
07:19 49.2 °F 46.1 °F 30.16 in Calm     89% 0.00 in 40 W/m2
07:24 49.2 °F 46.1 °F 30.16 in Calm     89% 0.00 in 44 W/m2
07:29 49.4 °F 46.3 °F 30.16 in Calm     89% 0.00 in 49 W/m2
07:34 49.6 °F 46.8 °F 30.16 in Calm     90% 0.00 in 51 W/m2
07:39 49.8 °F 47 °F 30.16 in Calm     90% 0.00 in 54 W/m2
07:44 50 °F 47.2 °F 30.16 in Calm     90% 0.00 in 58 W/m2
07:49 50.2 °F 47.4 °F 30.16 in Calm     90% 0.00 in 60 W/m2
07:54 50.4 °F 47.3 °F 30.16 in Calm     89.1% 0.00 in 62 W/m2
07:59 50.6 °F 47.5 °F 30.16 in Calm     89% 0.00 in 63 W/m2
08:04 51 °F 47.9 °F 30.16 in Calm     89% 0.00 in 69 W/m2
08:09 51.1 °F 47.8 °F 30.16 in Calm     88.5% 0.00 in 72 W/m2
08:14 51.4 °F 47.9 °F 30.17 in Calm     88% 0.00 in 76 W/m2
08:19 51.7 °F 48.1 °F 30.17 in Calm     87.5% 0.00 in 81 W/m2
08:24 52.1 °F 48.3 °F 30.17 in Calm     87% 0.00 in 90 W/m2
08:29 52.4 °F 48.5 °F 30.17 in Calm     86.6% 0.00 in 100 W/m2
08:34 52.8 °F 48.7 °F 30.17 in Calm     86% 0.00 in 109 W/m2
08:39 53.2 °F 49 °F 30.17 in Calm     85.5% 0.00 in 111 W/m2
08:44 53.7 °F 49.2 °F 30.17 in Calm     84.5% 0.00 in 128 W/m2
08:49 54.3 °F 49.5 °F 30.17 in Calm     83.7% 0.00 in 346 W/m2
08:54 55 °F 49.5 °F 30.17 in Calm     81.8% 0.00 in 387 W/m2
08:59 55.8 °F 50 °F 30.17 in Calm     80.7% 0.00 in 397 W/m2
09:04 56.7 °F 50 °F 30.17 in Calm     78.2% 0.00 in 415 W/m2
09:09 58.1 °F 50 °F 30.17 in Calm     74.6% 0.00 in 431 W/m2
09:14 59.4 °F 50.5 °F 30.17 in Calm     72.2% 0.00 in 455 W/m2
09:19 60.8 °F 50.2 °F 30.17 in Calm   2 mph 67.9% 0.00 in 476 W/m2
09:24 62.1 °F 49.8 °F 30.17 in NW 0.9 mph 3 mph 64% 0.00 in 485 W/m2
09:29 63.2 °F 48.7 °F 30.17 in Calm   3 mph 59.2% 0.00 in 510 W/m2
09:34 64 °F 49.7 °F 30.17 in NW 0.3 mph 3 mph 59.8% 0.00 in 564 W/m2
09:39 64.7 °F 49.5 °F 30.17 in Calm   3 mph 57.7% 0.00 in 643 W/m2
09:44 65.3 °F 49.8 °F 30.17 in Calm   3 mph 57.2% 0.00 in 552 W/m2
09:49 65.6 °F 48.9 °F 30.17 in WNW 1 mph 6 mph 54.8% 0.00 in 626 W/m2
09:54 65.8 °F 49.1 °F 30.17 in WNW 0.2 mph 6 mph 54.9% 0.00 in 599 W/m2
09:59 66.2 °F 49.7 °F 30.16 in WNW 0.1 mph 6 mph 55.2% 0.00 in 605 W/m2
10:04 66.6 °F 49.7 °F 30.16 in WNW 0.3 mph 6 mph 54.3% 0.00 in 617 W/m2
10:09 67.1 °F 49.9 °F 30.16 in WNW 0.3 mph 3 mph 53.9% 0.00 in 619 W/m2
10:14 67.5 °F 49.9 °F 30.16 in WNW 1.8 mph 6 mph 53.3% 0.00 in 629 W/m2
10:19 67.7 °F 49.9 °F 30.16 in WNW 0.1 mph 6 mph 52.9% 0.00 in 638 W/m2
10:24 68.2 °F 51.2 °F 30.16 in WNW 0.1 mph 6 mph 54.7% 0.00 in 656 W/m2
10:29 68.6 °F 51.3 °F 30.16 in WNW 0.1 mph 6 mph 53.9% 0.00 in 663 W/m2
10:34 68.8 °F 51.4 °F 30.16 in WNW 0.2 mph 6 mph 53.7% 0.00 in 666 W/m2
10:39 69.1 °F 51.4 °F 30.16 in West 1 mph 6 mph 53.4% 0.00 in 679 W/m2
10:44 69.3 °F 50.9 °F 30.16 in West 1.3 mph 6 mph 52.1% 0.00 in 691 W/m2
10:49 69.4 °F 51.4 °F 30.16 in WNW 0.1 mph 6 mph 52.8% 0.00 in 693 W/m2
10:54 69.6 °F 51.7 °F 30.16 in Calm   6 mph 52.8% 0.00 in 710 W/m2
10:59 69.8 °F 50.4 °F 30.15 in WNW 1.2 mph 6 mph 50.2% 0.00 in 721 W/m2
11:04 70 °F 50.5 °F 30.16 in Calm   6 mph 50% 0.00 in 726 W/m2
11:09 70.3 °F 51.8 °F 30.16 in Calm   1 mph 51.8% 0.00 in 735 W/m2
11:14 70.4 °F 50.3 °F 30.16 in NW 0.8 mph 4 mph 48.9% 0.00 in 738 W/m2
11:19 70.4 °F 50.2 °F 30.16 in NNW 0.2 mph 4 mph 48.7% 0.00 in 742 W/m2
11:24 70.5 °F 50.8 °F 30.15 in NNW 0.1 mph 4 mph 49.8% 0.00 in 745 W/m2
11:29 70.8 °F 50.9 °F 30.15 in NNW 1.1 mph 4 mph 49.3% 0.00 in 749 W/m2
11:34 71.1 °F 50.3 °F 30.15 in WNW 1.1 mph 6 mph 47.8% 0.00 in 605 W/m2
11:39 71.2 °F 50.4 °F 30.15 in WNW 1 mph 6 mph 47.7% 0.00 in 188 W/m2
11:44 70.7 °F 50.2 °F 30.15 in Calm   6 mph 48.1% 0.00 in 160 W/m2
11:49 70.3 °F 49.8 °F 30.15 in West 2.3 mph 10 mph 48.1% 0.00 in 160 W/m2
11:54 70 °F 49.4 °F 30.15 in West 1 mph 10 mph 47.9% 0.00 in 120 W/m2
11:59 69.9 °F 50.6 °F 30.15 in West 0.7 mph 10 mph 50.4% 0.00 in 118 W/m2
12:00 69.8 °F 49.8 °F 30.15 in Calm   10 mph 49% 0.00 in 104 W/m2
12:09 69.8 °F 50.2 °F 30.14 in WNW 0.7 mph 4 mph 49.9% 0.00 in 146 W/m2
12:14 69.7 °F 50.8 °F 30.14 in WNW 0.1 mph 4 mph 51.1% 0.00 in 163 W/m2
12:19 69.6 °F 51.7 °F 30.13 in WNW 1 mph 6 mph 53% 0.00 in 179 W/m2
12:24 69.8 °F 51.6 °F 30.13 in West 1 mph 6 mph 52.4% 0.00 in 287 W/m2
12:29 70 °F 52.3 °F 30.13 in WNW 0.8 mph 6 mph 53.3% 0.00 in 172 W/m2
12:34 70.3 °F 51.4 °F 30.13 in NNW 1.1 mph 6 mph 51.1% 0.00 in 257 W/m2
12:39 70.2 °F 51 °F 30.13 in NNW 0.9 mph 6 mph 50.6% 0.00 in 257 W/m2
12:44 70.2 °F 50.6 °F 30.13 in WNW 2.4 mph 9 mph 49.8% 0.00 in 146 W/m2
12:49 70.2 °F 51 °F 30.13 in NNW 1.1 mph 9 mph 50.6% 0.00 in 90 W/m2
12:54 70.1 °F 50.2 °F 30.13 in Calm   9 mph 49.2% 0.00 in 84 W/m2
12:59 70 °F 49.3 °F 30.13 in NNE 0.3 mph 9 mph 47.8% 0.00 in 299 W/m2
13:04 70 °F 50.2 °F 30.13 in NW 1.6 mph 9 mph 49.4% 0.00 in 156 W/m2
13:09 70.2 °F 50.2 °F 30.12 in WNW 1.4 mph 8 mph 49.1% 0.00 in 114 W/m2
13:14 70.3 °F 49 °F 30.12 in NW 1.1 mph 8 mph 46.7% 0.00 in 114 W/m2
13:19 70.4 °F 47.9 °F 30.12 in NNW 0.9 mph 11 mph 44.7% 0.00 in 91 W/m2
13:24 70.5 °F 48.6 °F 30.11 in NNW 0.3 mph 11 mph 45.8% 0.00 in 70 W/m2
13:29 70.5 °F 48.5 °F 30.11 in NNW 0.5 mph 11 mph 45.6% 0.00 in 76 W/m2
13:34 70.8 °F 49.9 °F 30.11 in WSW 0.5 mph 11 mph 47.5% 0.00 in 81 W/m2
13:39 71 °F 48.9 °F 30.11 in West 1.1 mph 7 mph 45.6% 0.00 in 86 W/m2
13:44 71.1 °F 49.6 °F 30.11 in West 0.8 mph 7 mph 46.5% 0.00 in 69 W/m2
13:49 71.3 °F 50 °F 30.11 in WSW 0.8 mph 7 mph 46.9% 0.00 in 63 W/m2
13:54 71.4 °F 50 °F 30.11 in NW 1.1 mph 7 mph 46.7% 0.00 in 65 W/m2
13:59 71.6 °F 50.8 °F 30.10 in NW 1.6 mph 7 mph 47.8% 0.00 in 67 W/m2
14:04 71.5 °F 50.6 °F 30.10 in NW 3.4 mph 10 mph 47.6% 0.00 in 95 W/m2
14:09 71.6 °F 51.2 °F 30.09 in WNW 1.4 mph 10 mph 48.6% 0.00 in 74 W/m2
14:14 71.6 °F 51.1 °F 30.09 in WNW 1.4 mph 10 mph 48.4% 0.00 in 70 W/m2
14:19 71.6 °F 51.2 °F 30.09 in WNW 1.7 mph 10 mph 48.5% 0.00 in 234 W/m2
14:24 71.6 °F 51.3 °F 30.09 in West 2.1 mph 10 mph 48.7% 0.00 in 561 W/m2
14:29 71.8 °F 51.9 °F 30.09 in West 2.9 mph 10 mph 49.5% 0.00 in 185 W/m2
14:34 71.9 °F 51.2 °F 30.09 in WNW 2.3 mph 10 mph 48% 0.00 in 104 W/m2
14:39 72 °F 51.6 °F 30.09 in WNW 1.2 mph 10 mph 48.7% 0.00 in 100 W/m2
14:44 72.1 °F 51.8 °F 30.09 in WNW 1.6 mph 10 mph 48.8% 0.00 in 475 W/m2
14:49 72.2 °F 51.6 °F 30.08 in NW 2.1 mph 11 mph 48.2% 0.00 in 503 W/m2
14:54 72.3 °F 51.4 °F 30.08 in West 1.8 mph 11 mph 47.8% 0.00 in 183 W/m2
14:59 72.3 °F 52 °F 30.08 in WNW 2.1 mph 11 mph 48.8% 0.00 in 568 W/m2
15:04 72.4 °F 52.6 °F 30.08 in West 1.8 mph 11 mph 49.8% 0.00 in 381 W/m2
15:09 72.5 °F 52.4 °F 30.08 in WNW 3.3 mph 11 mph 49.1% 0.00 in 264 W/m2
15:14 72.6 °F 52.2 °F 30.08 in WNW 1.3 mph 11 mph 48.6% 0.00 in 552 W/m2
15:19 72.9 °F 53.3 °F 30.08 in West 1.5 mph 11 mph 50.2% 0.00 in 606 W/m2
15:24 73.3 °F 53.3 °F 30.08 in WNW 3.3 mph 11 mph 49.5% 0.00 in 605 W/m2
15:29 73.6 °F 53 °F 30.08 in West 3 mph 11 mph 48.5% 0.00 in 594 W/m2
15:34 73.8 °F 53 °F 30.07 in WSW 2.1 mph 11 mph 48.1% 0.00 in 591 W/m2
15:39 74.2 °F 53.7 °F 30.08 in West 1.2 mph 9 mph 48.8% 0.00 in 580 W/m2
15:44 74.6 °F 54.4 °F 30.08 in West 2.6 mph 9 mph 49.4% 0.00 in 550 W/m2
15:49 74.6 °F 53.2 °F 30.08 in WSW 2.5 mph 9 mph 47.3% 0.00 in 538 W/m2
15:54 74.5 °F 53.8 °F 30.08 in West 0.4 mph 9 mph 48.5% 0.00 in 536 W/m2
15:59 74.3 °F 54.2 °F 30.07 in WNW 3.3 mph 9 mph 49.5% 0.00 in 54 W/m2
16:00 74.1 °F 53.7 °F 30.07 in NNW 3 mph 9 mph 49% 0.00 in 54 W/m2
16:09 73.8 °F 53.9 °F 30.07 in West 0.4 mph 3 mph 49.8% 0.00 in 54 W/m2
16:14 73.8 °F 54.1 °F 30.08 in West 3.4 mph 10 mph 50.2% 0.00 in 53 W/m2
16:19 73.7 °F 53.6 °F 30.08 in WNW 1.2 mph 10 mph 49.4% 0.00 in 51 W/m2
16:24 73.6 °F 54.2 °F 30.08 in WNW 1.6 mph 10 mph 50.8% 0.00 in 47 W/m2
16:29 73.5 °F 54.4 °F 30.08 in WNW 2.2 mph 11 mph 51.3% 0.00 in 46 W/m2
16:34 73.5 °F 54.5 °F 30.08 in WNW 2.2 mph 11 mph 51.4% 0.00 in 44 W/m2
16:39 73.5 °F 54.4 °F 30.08 in NW 2.6 mph 10 mph 51.3% 0.00 in 42 W/m2
16:44 73.4 °F 54.4 °F 30.08 in WNW 1.7 mph 10 mph 51.5% 0.00 in 40 W/m2
16:49 73.4 °F 54.2 °F 30.08 in WNW 3.4 mph 11 mph 51% 0.00 in 40 W/m2
16:54 73.3 °F 54.4 °F 30.08 in WNW 1.6 mph 11 mph 51.4% 0.00 in 39 W/m2
16:59 73.3 °F 54.8 °F 30.08 in WNW 2.9 mph 11 mph 52.3% 0.00 in 39 W/m2
17:04 73.2 °F 54.4 °F 30.08 in WNW 1.6 mph 11 mph 51.6% 0.00 in 39 W/m2
17:09 73.1 °F 54.4 °F 30.08 in NW 1.6 mph 9 mph 51.9% 0.00 in 37 W/m2
17:14 73 °F 54.4 °F 30.08 in NW 2.9 mph 12 mph 52% 0.00 in 35 W/m2
17:19 72.9 °F 54.2 °F 30.08 in NW 2.3 mph 12 mph 52% 0.00 in 33 W/m2
17:24 72.6 °F 53.9 °F 30.08 in NW 2.2 mph 12 mph 51.8% 0.00 in 33 W/m2
17:29 72.4 °F 53.9 °F 30.08 in WNW 3.5 mph 14 mph 52.2% 0.00 in 32 W/m2
17:34 72.2 °F 54.1 °F 30.09 in WNW 2.2 mph 14 mph 52.9% 0.00 in 32 W/m2
17:39 72.1 °F 54.2 °F 30.09 in WNW 1.8 mph 10 mph 53.4% 0.00 in 30 W/m2
17:44 71.9 °F 54.3 °F 30.09 in WNW 2.4 mph 10 mph 53.8% 0.00 in 28 W/m2
17:49 71.7 °F 54 °F 30.09 in WNW 2.1 mph 10 mph 53.6% 0.00 in 25 W/m2
17:54 71.5 °F 54 °F 30.09 in WNW 2.2 mph 11 mph 54% 0.00 in 23 W/m2
17:59 71.3 °F 54.3 °F 30.09 in WNW 1.2 mph 11 mph 54.9% 0.00 in 23 W/m2
18:04 71.1 °F 54.3 °F 30.09 in WNW 0.3 mph 11 mph 55.3% 0.00 in 21 W/m2
18:09 71 °F 54.9 °F 30.09 in WNW 0.5 mph 4 mph 56.9% 0.00 in 19 W/m2
18:14 70.7 °F 54.6 °F 30.09 in WNW 1.4 mph 7 mph 56.7% 0.00 in 18 W/m2
18:19 70.5 °F 54.6 °F 30.09 in WNW 0.2 mph 7 mph 57% 0.00 in 18 W/m2
18:24 70.4 °F 54.6 °F 30.09 in WNW 0.1 mph 7 mph 57.3% 0.00 in 16 W/m2
18:29 70.2 °F 54.8 °F 30.10 in WNW 0.1 mph 7 mph 58% 0.00 in 14 W/m2
18:34 70.1 °F 54.6 °F 30.10 in WNW 0.2 mph 7 mph 58% 0.00 in 12 W/m2
18:39 69.9 °F 54.6 °F 30.10 in Calm   2 mph 58.3% 0.00 in 9 W/m2
18:44 69.7 °F 54.7 °F 30.10 in Calm   2 mph 59% 0.00 in 7 W/m2
18:48 69.5 °F 54.5 °F 30.10 in Calm   2 mph 59% 0.00 in 5 W/m2
Hartford County Weather
Compliments of Weather Underground - 2 mb